createdAt,value
2022-08-10T00:03:18.823Z,101417.97
2022-08-10T00:08:22.714Z,101415.13
2022-08-10T00:13:21.131Z,101419.78
2022-08-10T00:18:35.105Z,101419.91
2022-08-10T00:23:33.536Z,101424.44
2022-08-10T00:28:30.203Z,101407.56
2022-08-10T00:33:26.701Z,101401.34
2022-08-10T00:38:23.355Z,101407.00
2022-08-10T00:43:23.530Z,101404.03
2022-08-10T00:48:20.511Z,101400.38
2022-08-10T00:53:17.062Z,101393.81
2022-08-10T00:58:13.610Z,101390.44
2022-08-10T01:03:10.085Z,101389.97
2022-08-10T01:08:12.731Z,101380.47
2022-08-10T01:13:23.517Z,101384.56
2022-08-10T01:18:53.987Z,101383.53
2022-08-10T01:23:59.127Z,101377.16
2022-08-10T01:29:13.723Z,101373.03
2022-08-10T01:34:14.364Z,101372.31
2022-08-10T01:39:25.048Z,101362.84
2022-08-10T01:44:30.435Z,101358.28
2022-08-10T01:49:28.413Z,101353.88
2022-08-10T01:54:26.865Z,101352.16
2022-08-10T01:59:32.532Z,101356.72
2022-08-10T02:04:31.317Z,101365.31
2022-08-10T02:09:34.550Z,101351.84
2022-08-10T02:14:34.779Z,101353.22
2022-08-10T02:19:35.463Z,101358.41
2022-08-10T02:24:32.040Z,101352.56
2022-08-10T02:29:28.830Z,101353.72
2022-08-10T02:34:26.158Z,101354.09
2022-08-10T02:39:24.611Z,101359.94
2022-08-10T02:45:15.063Z,101360.22
2022-08-10T02:49:57.717Z,101364.16
2022-08-10T02:55:18.369Z,101367.22
2022-08-10T03:00:15.451Z,101365.00
2022-08-10T03:05:16.086Z,101362.94
2022-08-10T03:10:19.578Z,101369.72
2022-08-10T03:15:18.398Z,101360.09
2022-08-10T03:20:37.864Z,101365.19
2022-08-10T03:25:33.404Z,101358.13
2022-08-10T03:30:33.578Z,101366.56
2022-08-10T03:35:30.877Z,101368.75
2022-08-10T03:40:45.477Z,101370.84
2022-08-10T03:45:55.269Z,101372.69
2022-08-10T03:50:55.813Z,101370.41
2022-08-10T03:56:28.037Z,101364.47
2022-08-10T04:01:10.102Z,101364.00
2022-08-10T04:06:07.062Z,101368.63
2022-08-10T04:11:03.530Z,101365.06
2022-08-10T04:15:59.898Z,101366.78
2022-08-10T04:21:07.045Z,101366.09
2022-08-10T04:26:04.492Z,101357.28
2022-08-10T04:31:01.662Z,101368.38
2022-08-10T04:35:59.146Z,101361.13
2022-08-10T04:40:56.460Z,101358.63
2022-08-10T04:45:52.868Z,101370.19
2022-08-10T04:50:52.625Z,101366.22
2022-08-10T04:55:49.060Z,101363.50
2022-08-10T05:00:45.618Z,101363.81
2022-08-10T05:05:42.144Z,101369.81
2022-08-10T05:10:38.633Z,101377.94
2022-08-10T05:15:35.180Z,101379.09
2022-08-10T05:20:31.646Z,101382.69
2022-08-10T05:25:28.312Z,101387.38
2022-08-10T05:30:24.703Z,101386.16
2022-08-10T05:35:21.417Z,101381.38
2022-08-10T05:40:18.871Z,101384.53
2022-08-10T05:45:21.445Z,101385.34
2022-08-10T05:50:21.168Z,101398.25
2022-08-10T05:55:18.273Z,101403.38
2022-08-10T06:00:37.425Z,101402.50
2022-08-10T06:05:39.398Z,101411.00
2022-08-10T06:12:16.497Z,101415.25
2022-08-10T06:15:56.248Z,101421.25
2022-08-10T06:20:54.574Z,101427.25
2022-08-10T06:26:09.710Z,101428.44
2022-08-10T06:31:07.855Z,101430.81
2022-08-10T06:36:07.769Z,101438.00
2022-08-10T06:41:14.719Z,101437.34
2022-08-10T06:46:19.606Z,101442.03
2022-08-10T06:51:22.728Z,101431.97
2022-08-10T06:56:36.211Z,101447.34
2022-08-10T07:01:38.107Z,101442.16
2022-08-10T07:06:42.976Z,101447.66
2022-08-10T07:11:41.744Z,101445.16
2022-08-10T07:16:40.722Z,101443.13
2022-08-10T07:21:43.125Z,101445.94
2022-08-10T07:26:45.779Z,101442.25
2022-08-10T07:31:56.593Z,101441.28
2022-08-10T07:36:58.693Z,101438.91
2022-08-10T07:41:56.962Z,101442.03
2022-08-10T07:46:55.745Z,101446.03
2022-08-10T07:51:56.152Z,101453.00
2022-08-10T07:56:58.100Z,101450.13
2022-08-10T08:01:56.095Z,101456.66
2022-08-10T08:06:54.092Z,101461.69
2022-08-10T08:11:52.221Z,101468.91
2022-08-10T08:16:51.985Z,101455.47
2022-08-10T08:24:06.198Z,101454.91
2022-08-10T08:27:06.089Z,101457.00
2022-08-10T08:32:04.200Z,101458.69
2022-08-10T08:37:03.238Z,101454.69
2022-08-10T08:42:17.576Z,101460.94
2022-08-10T08:48:04.770Z,101452.13
2022-08-10T08:54:03.359Z,101439.66
2022-08-10T08:59:21.061Z,101441.19
2022-08-10T09:04:37.366Z,101431.78
2022-08-10T09:09:59.911Z,101431.13
2022-08-10T09:15:02.353Z,101429.09
2022-08-10T09:20:07.609Z,101425.31
2022-08-10T09:25:21.621Z,101414.66
2022-08-10T09:30:31.217Z,101419.31
2022-08-10T09:36:24.977Z,101417.25
2022-08-10T09:41:13.468Z,101416.72
2022-08-10T09:46:27.524Z,101409.44
2022-08-10T09:51:45.737Z,101410.06
2022-08-10T09:57:12.009Z,101408.38
2022-08-10T10:02:21.409Z,101390.44
2022-08-10T10:07:27.181Z,101392.16
2022-08-10T10:13:00.853Z,101378.75
2022-08-10T10:18:02.967Z,101389.66
2022-08-10T10:23:16.345Z,101376.34
2022-08-10T10:29:11.380Z,101375.22
2022-08-10T10:34:17.741Z,101360.50
2022-08-10T10:39:19.480Z,101365.63
2022-08-10T10:44:21.693Z,101364.50
2022-08-10T10:49:45.982Z,101356.53
2022-08-10T10:54:57.052Z,101350.03
2022-08-10T11:00:02.126Z,101350.22
2022-08-10T11:05:30.373Z,101344.91
2022-08-10T11:10:41.180Z,101348.34
2022-08-10T11:16:04.195Z,101338.38
2022-08-10T11:21:28.223Z,101339.78
2022-08-10T11:26:36.412Z,101339.59
2022-08-10T11:31:43.211Z,101324.53
2022-08-10T11:36:55.596Z,101327.91
2022-08-10T11:42:16.505Z,101323.41
2022-08-10T11:47:31.426Z,101317.91
2022-08-10T11:52:40.750Z,101303.38
2022-08-10T11:57:54.604Z,101299.91
2022-08-10T12:03:03.782Z,101297.56
2022-08-10T12:10:05.957Z,101278.50
2022-08-10T12:13:30.270Z,101286.50
2022-08-10T12:18:36.458Z,101287.38
2022-08-10T12:23:39.958Z,101281.53
2022-08-10T12:28:50.103Z,101275.97
2022-08-10T12:34:08.231Z,101274.72
2022-08-10T12:39:19.810Z,101272.41
2022-08-10T12:44:20.767Z,101261.22
2022-08-10T12:49:35.851Z,101269.22
2022-08-10T12:54:36.296Z,101254.00
2022-08-10T12:59:43.137Z,101246.59
2022-08-10T13:04:42.740Z,101239.28
2022-08-10T13:09:56.003Z,101234.34
2022-08-10T13:14:59.720Z,101226.19
2022-08-10T13:20:00.889Z,101225.41
2022-08-10T13:25:05.647Z,101229.59
2022-08-10T13:30:06.779Z,101233.41
2022-08-10T13:35:12.077Z,101207.66
2022-08-10T13:40:12.854Z,101209.41
2022-08-10T13:45:20.188Z,101194.47
2022-08-10T13:50:35.444Z,101193.56
2022-08-10T13:55:54.122Z,101179.84
2022-08-10T14:00:54.509Z,101175.47
2022-08-10T14:05:53.108Z,101175.50
2022-08-10T14:11:09.159Z,101179.31
2022-08-10T14:16:09.268Z,101164.44
2022-08-10T14:21:05.958Z,101158.34
2022-08-10T14:26:08.992Z,101155.28
2022-08-10T14:31:22.061Z,101154.50
2022-08-10T14:36:32.243Z,101155.84
2022-08-10T14:42:01.450Z,101153.34
2022-08-10T14:46:55.892Z,101146.47
2022-08-10T14:51:52.675Z,101147.75
2022-08-10T14:56:54.803Z,101148.53
2022-08-10T15:02:01.151Z,101145.66
2022-08-10T15:07:27.937Z,101137.91
2022-08-10T15:12:27.510Z,101131.94
2022-08-10T15:17:30.179Z,101125.66
2022-08-10T15:22:49.865Z,101127.94
2022-08-10T15:27:55.121Z,101118.81
2022-08-10T15:33:12.208Z,101131.44
2022-08-10T15:38:10.274Z,101124.78
2022-08-10T15:43:20.076Z,101117.66
2022-08-10T15:48:18.122Z,101120.38
2022-08-10T15:53:49.035Z,101122.63
2022-08-10T15:58:53.537Z,101110.28
2022-08-10T16:04:00.829Z,101112.97
2022-08-10T16:10:24.030Z,101112.41
2022-08-10T16:14:31.201Z,101109.19
2022-08-10T16:19:29.621Z,101100.50
2022-08-10T16:24:29.819Z,101101.81
2022-08-10T16:29:27.819Z,101099.31
2022-08-10T16:34:28.199Z,101100.28
2022-08-10T16:39:58.837Z,101092.84
2022-08-10T16:45:14.949Z,101091.84
2022-08-10T16:50:14.377Z,101086.25
2022-08-10T16:55:24.383Z,101086.09
2022-08-10T17:00:38.645Z,101072.16
2022-08-10T17:06:09.675Z,101070.91
2022-08-10T17:10:54.562Z,101066.63
2022-08-10T17:15:58.128Z,101065.19
2022-08-10T17:20:58.493Z,101059.13
2022-08-10T17:26:01.576Z,101066.94
2022-08-10T17:31:23.947Z,101059.06
2022-08-10T17:36:29.692Z,101053.31
2022-08-10T17:41:31.737Z,101056.31
2022-08-10T17:46:33.618Z,101060.72
2022-08-10T17:51:32.289Z,101061.97
2022-08-10T17:56:33.640Z,101061.53
2022-08-10T18:01:40.949Z,101061.66
2022-08-10T18:06:57.371Z,101060.38
2022-08-10T18:12:00.710Z,101064.81
2022-08-10T18:17:06.145Z,101061.50
2022-08-10T18:22:03.480Z,101073.38
2022-08-10T18:27:03.547Z,101068.25
2022-08-10T18:32:02.105Z,101070.16
2022-08-10T18:37:00.660Z,101084.25
2022-08-10T18:42:05.692Z,101097.44
2022-08-10T18:47:12.680Z,101105.38
2022-08-10T18:52:13.135Z,101106.31
2022-08-10T18:57:58.248Z,101112.41
2022-08-10T19:03:02.364Z,101118.19
2022-08-10T19:08:32.034Z,101121.41
2022-08-10T19:13:55.246Z,101119.59
2022-08-10T19:19:22.764Z,101128.41
2022-08-10T19:24:26.795Z,101133.09
2022-08-10T19:30:11.774Z,101128.88
2022-08-10T19:35:22.640Z,101138.31
2022-08-10T19:40:44.035Z,101131.41
2022-08-10T19:46:25.936Z,101142.38
2022-08-10T19:51:51.469Z,101142.75
2022-08-10T19:57:03.421Z,101137.44
2022-08-10T20:02:00.500Z,101132.13
2022-08-10T20:07:19.160Z,101122.03
2022-08-10T20:12:38.084Z,101128.94
2022-08-10T20:17:52.655Z,101124.19
2022-08-10T20:23:18.857Z,101111.19
2022-08-10T20:28:20.343Z,101117.81
2022-08-10T20:33:25.561Z,101116.81
2022-08-10T20:38:29.029Z,101107.88
2022-08-10T20:43:52.816Z,101102.81
2022-08-10T20:48:56.899Z,101107.53
2022-08-10T20:53:57.132Z,101110.56
2022-08-10T20:59:33.409Z,101120.16
2022-08-10T21:04:33.108Z,101116.44
2022-08-10T21:09:58.180Z,101114.88
2022-08-10T21:15:18.741Z,101116.56
2022-08-10T21:20:36.553Z,101120.41
2022-08-10T21:25:48.858Z,101109.44
2022-08-10T21:30:57.204Z,101114.84
2022-08-10T21:36:05.777Z,101114.63
2022-08-10T21:41:57.321Z,101124.03
2022-08-10T21:47:41.671Z,101115.72
2022-08-10T21:53:28.848Z,101122.03
2022-08-10T21:59:05.405Z,101112.88
2022-08-10T22:04:21.033Z,101111.50
2022-08-10T22:09:42.727Z,101106.44
2022-08-10T22:15:00.873Z,101109.94
2022-08-10T22:20:24.952Z,101112.44
2022-08-10T22:26:00.317Z,101110.75
2022-08-10T22:31:32.208Z,101099.56
2022-08-10T22:37:11.818Z,101094.31
2022-08-10T22:42:59.169Z,101101.47
2022-08-10T22:48:17.721Z,101098.53
2022-08-10T22:53:53.446Z,101095.19
2022-08-10T22:58:49.833Z,101092.44
2022-08-10T23:03:52.506Z,101097.81
2022-08-10T23:08:56.573Z,101095.59
2022-08-10T23:14:03.859Z,101094.97
2022-08-10T23:19:09.825Z,101100.38
2022-08-10T23:24:08.287Z,101095.38
2022-08-10T23:29:12.320Z,101095.50
2022-08-10T23:34:11.042Z,101088.28
2022-08-10T23:39:25.293Z,101085.44
2022-08-10T23:44:25.367Z,101080.09
2022-08-10T23:49:24.370Z,101084.66
2022-08-10T23:54:22.347Z,101083.34
2022-08-10T23:59:22.404Z,101091.41
